createdAt,value
2018-04-22T00:01:49.572Z,65
2018-04-22T00:07:16.452Z,65
2018-04-22T00:12:43.527Z,65
2018-04-22T00:18:10.747Z,66
2018-04-22T00:23:37.899Z,66
2018-04-22T00:29:05.969Z,67
2018-04-22T00:34:33.100Z,67
2018-04-22T00:40:00.350Z,67
2018-04-22T00:45:27.281Z,68
2018-04-22T00:50:55.346Z,68
2018-04-22T00:56:22.637Z,68
2018-04-22T01:01:49.509Z,68
2018-04-22T01:07:16.701Z,68
2018-04-22T01:12:43.772Z,68
2018-04-22T01:18:11.850Z,68
2018-04-22T01:23:38.965Z,68
2018-04-22T01:29:07.061Z,68
2018-04-22T01:34:35.202Z,69
2018-04-22T01:40:02.542Z,69
2018-04-22T01:45:30.542Z,69
2018-04-22T01:50:58.678Z,69
2018-04-22T01:56:25.721Z,69
2018-04-22T02:01:52.842Z,69
2018-04-22T02:07:20.948Z,69
2018-04-22T02:12:48.155Z,70
2018-04-22T02:18:16.421Z,70
2018-04-22T02:23:43.338Z,70
2018-04-22T02:29:11.553Z,70
2018-04-22T02:34:39.574Z,70
2018-04-22T02:40:06.660Z,70
2018-04-22T02:45:33.811Z,70
2018-04-22T02:51:01.931Z,70
2018-04-22T02:56:30.217Z,70
2018-04-22T03:01:57.125Z,70
2018-04-22T03:07:24.206Z,70
2018-04-22T03:12:51.309Z,70
2018-04-22T03:18:18.775Z,70
2018-04-22T03:23:46.838Z,70
2018-04-22T03:29:14.517Z,71
2018-04-22T03:34:41.604Z,71
2018-04-22T03:40:09.878Z,71
2018-04-22T03:45:36.992Z,71
2018-04-22T03:51:04.783Z,71
2018-04-22T03:56:31.837Z,71
2018-04-22T04:01:58.949Z,72
2018-04-22T04:07:25.881Z,72
2018-04-22T04:12:53.897Z,72
2018-04-22T04:18:21.957Z,72
2018-04-22T04:23:49.981Z,72
2018-04-22T04:29:17.995Z,72
2018-04-22T04:34:45.135Z,72
2018-04-22T04:40:13.156Z,72
2018-04-22T04:45:41.223Z,72
2018-04-22T04:51:09.227Z,72
2018-04-22T04:56:37.250Z,72
2018-04-22T05:02:05.296Z,72
2018-04-22T05:07:32.365Z,72
2018-04-22T05:12:59.445Z,72
2018-04-22T05:18:26.386Z,72
2018-04-22T05:23:53.406Z,72
2018-04-22T05:29:21.452Z,72
2018-04-22T05:34:49.497Z,72
2018-04-22T05:40:16.511Z,72
2018-04-22T05:45:44.544Z,72
2018-04-22T05:51:11.651Z,72
2018-04-22T05:56:38.677Z,72
2018-04-22T06:02:06.764Z,72
2018-04-22T06:07:34.899Z,72
2018-04-22T06:13:02.914Z,72
2018-04-22T06:18:30.005Z,72
2018-04-22T06:23:57.066Z,72
2018-04-22T06:29:25.293Z,72
2018-04-22T06:34:52.331Z,72
2018-04-22T06:40:19.434Z,72
2018-04-22T06:45:46.465Z,72
2018-04-22T06:51:13.572Z,72
2018-04-22T06:56:40.783Z,72
2018-04-22T07:02:08.122Z,73
2018-04-22T07:07:36.199Z,73
2018-04-22T07:13:04.580Z,73
2018-04-22T07:18:32.538Z,73
2018-04-22T07:23:59.795Z,73
2018-04-22T07:29:26.964Z,73
2018-04-22T07:34:54.241Z,73
2018-04-22T07:45:48.656Z,73
2018-04-22T07:51:16.955Z,73
2018-04-22T07:56:44.231Z,73
2018-04-22T08:02:11.522Z,73
2018-04-22T08:07:39.793Z,73
2018-04-22T08:13:08.318Z,73
2018-04-22T08:18:36.464Z,73
2018-04-22T08:24:03.826Z,73
2018-04-22T08:29:31.184Z,73
2018-04-22T08:34:59.533Z,72
2018-04-22T08:40:26.959Z,72
2018-04-22T08:45:54.334Z,72
2018-04-22T08:51:22.663Z,72
2018-04-22T08:56:51.111Z,71
2018-04-22T09:07:46.952Z,71
2018-04-22T09:13:14.405Z,71
2018-04-22T09:18:41.870Z,70
2018-04-22T09:24:09.340Z,70
2018-04-22T09:29:37.921Z,70
2018-04-22T09:35:06.269Z,70
2018-04-22T09:40:34.841Z,69
2018-04-22T09:46:03.324Z,69
2018-04-22T09:51:31.835Z,69
2018-04-22T09:57:00.432Z,69
2018-04-22T10:02:27.957Z,68
2018-04-22T10:07:55.547Z,68
2018-04-22T10:18:52.655Z,67
2018-04-22T10:24:21.328Z,66
2018-04-22T10:29:49.929Z,66
2018-04-22T10:35:17.522Z,65
2018-04-22T10:40:46.158Z,65
2018-04-22T10:46:14.768Z,65
2018-04-22T10:51:43.431Z,65
2018-04-22T10:57:12.195Z,64
2018-04-22T11:02:40.829Z,64
2018-04-22T11:08:09.472Z,64
2018-04-22T11:13:38.197Z,63
2018-04-22T11:19:05.879Z,63
2018-04-22T11:24:34.726Z,63
2018-04-22T11:30:02.388Z,62
2018-04-22T11:35:31.089Z,62
2018-04-22T11:40:59.831Z,62
2018-04-22T11:46:27.660Z,61
2018-04-22T11:51:56.408Z,61
2018-04-22T11:57:24.148Z,61
2018-04-22T12:02:51.881Z,60
2018-04-22T12:08:19.833Z,60
2018-04-22T12:13:48.505Z,59
2018-04-22T12:19:16.303Z,59
2018-04-22T12:24:44.093Z,59
2018-04-22T12:30:12.878Z,58
2018-04-22T12:35:40.682Z,58
2018-04-22T12:41:08.739Z,57
2018-04-22T12:46:36.328Z,57
2018-04-22T12:52:05.158Z,57
2018-04-22T12:57:33.021Z,57
2018-04-22T13:03:01.934Z,56
2018-04-22T13:08:29.750Z,56
2018-04-22T13:13:57.602Z,56
2018-04-22T13:19:26.481Z,56
2018-04-22T13:24:54.405Z,56
2018-04-22T13:30:22.357Z,55
2018-04-22T13:35:50.150Z,55
2018-04-22T13:41:19.057Z,55
2018-04-22T13:46:48.013Z,55
2018-04-22T13:52:15.891Z,55
2018-04-22T13:57:43.704Z,55
2018-04-22T14:03:11.535Z,55
2018-04-22T14:08:39.412Z,54
2018-04-22T14:14:08.294Z,54
2018-04-22T14:19:37.380Z,54
2018-04-22T14:25:05.054Z,54
2018-04-22T14:30:34.035Z,54
2018-04-22T14:36:02.870Z,54
2018-04-22T14:41:30.674Z,54
2018-04-22T14:46:58.562Z,54
2018-04-22T14:52:27.603Z,54
2018-04-22T14:57:55.383Z,54
2018-04-22T15:03:24.365Z,54
2018-04-22T15:08:53.244Z,54
2018-04-22T15:14:22.034Z,54
2018-04-22T15:19:49.847Z,53
2018-04-22T15:25:17.778Z,53
2018-04-22T15:30:46.534Z,53
2018-04-22T15:36:14.457Z,53
2018-04-22T15:41:43.291Z,53
2018-04-22T15:47:11.103Z,53
2018-04-22T15:52:38.967Z,54
2018-04-22T15:58:06.838Z,54
2018-04-22T16:03:34.669Z,54
2018-04-22T16:09:03.411Z,54
2018-04-22T16:14:31.358Z,54
2018-04-22T16:19:59.953Z,54
2018-04-22T16:25:28.745Z,54
2018-04-22T16:30:57.709Z,53
2018-04-22T16:36:26.293Z,54
2018-04-22T16:41:54.351Z,54
2018-04-22T16:47:21.781Z,53
2018-04-22T16:52:49.506Z,53
2018-04-22T16:58:17.234Z,53
2018-04-22T17:03:44.905Z,53
2018-04-22T17:09:12.608Z,53
2018-04-22T17:14:41.364Z,53
2018-04-22T17:20:09.125Z,52
2018-04-22T17:25:37.746Z,52
2018-04-22T17:31:06.784Z,52
2018-04-22T17:36:35.192Z,53
2018-04-22T17:42:03.949Z,53
2018-04-22T17:47:31.869Z,53
2018-04-22T17:53:00.338Z,53
2018-04-22T17:58:27.894Z,53
2018-04-22T18:03:56.547Z,53
2018-04-22T18:09:24.184Z,54
2018-04-22T18:14:52.806Z,54
2018-04-22T18:20:20.514Z,54
2018-04-22T18:25:48.187Z,54
2018-04-22T18:31:16.651Z,55
2018-04-22T18:36:44.279Z,55
2018-04-22T18:42:12.875Z,55
2018-04-22T18:47:41.359Z,55
2018-04-22T18:53:09.937Z,56
2018-04-22T18:58:37.498Z,56
2018-04-22T19:04:05.061Z,56
2018-04-22T19:09:32.647Z,56
2018-04-22T19:15:00.193Z,57
2018-04-22T19:20:27.595Z,57
2018-04-22T19:25:56.339Z,57
2018-04-22T19:31:23.659Z,57
2018-04-22T19:36:52.196Z,57
2018-04-22T19:42:19.714Z,57
2018-04-22T19:47:48.181Z,57
2018-04-22T19:53:16.609Z,58
2018-04-22T19:58:45.091Z,58
2018-04-22T20:04:13.556Z,58
2018-04-22T20:09:42.214Z,58
2018-04-22T20:15:10.476Z,58
2018-04-22T20:20:37.964Z,58
2018-04-22T20:26:06.499Z,58
2018-04-22T20:31:33.869Z,58
2018-04-22T20:37:02.306Z,59
2018-04-22T20:42:30.833Z,59
2018-04-22T20:47:58.279Z,59
2018-04-22T20:53:25.655Z,59
2018-04-22T20:58:54.143Z,59
2018-04-22T21:04:21.535Z,59
2018-04-22T21:09:49.981Z,60
2018-04-22T21:15:17.398Z,60
2018-04-22T21:20:46.062Z,60
2018-04-22T21:26:14.324Z,60
2018-04-22T21:31:42.740Z,60
2018-04-22T21:37:11.208Z,60
2018-04-22T21:42:38.622Z,60
2018-04-22T21:48:06.090Z,61
2018-04-22T21:53:33.548Z,61
2018-04-22T21:59:01.952Z,61
2018-04-22T22:04:30.405Z,61
2018-04-22T22:09:58.878Z,61
2018-04-22T22:15:27.336Z,62
2018-04-22T22:20:54.909Z,62
2018-04-22T22:26:23.223Z,62
2018-04-22T22:31:50.731Z,62
2018-04-22T22:37:19.149Z,62
2018-04-22T22:42:46.621Z,63
2018-04-22T22:48:15.208Z,63
2018-04-22T22:53:43.715Z,64
2018-04-22T22:59:12.030Z,64
2018-04-22T23:04:39.485Z,64
2018-04-22T23:10:06.940Z,65
2018-04-22T23:15:35.437Z,65
2018-04-22T23:21:02.869Z,66
2018-04-22T23:26:30.488Z,66
2018-04-22T23:31:58.947Z,67
2018-04-22T23:37:26.384Z,67
2018-04-22T23:42:54.944Z,67
2018-04-22T23:48:22.378Z,68
2018-04-22T23:53:49.832Z,68
2018-04-22T23:59:17.412Z,69
